Time;durP1;ratioP1;P1;durP2;ratioP2;P2;SDS_P1;SDS_P2;PMS_P1;PMS_P2;Temp;Humidity;BMP_temperature;BMP_pressure;BME280_temperature;BME280_humidity;BME280_pressure;Samples;Min_cycle;Max_cycle;Signal;HPM_P1;HPM_P2
2021/11/28 00:00:32;;;;;;;0.10;0.10;;;;;;;;;;5074312;28;20064;-83
2021/11/28 00:02:58;;;;;;;0.90;0.90;;;;;;;;;;5074103;28;20078;-84
2021/11/28 00:05:25;;;;;;;0.10;0.10;;;;;;;;;;5073683;28;20020;-85
2021/11/28 00:08:07;;;;;;;0.10;0.10;;;;;;;;;;5072642;28;20032;-84
2021/11/28 00:16:08;;;;;;;0.17;0.17;;;;;;;;;;5048082;28;20052;-85
2021/11/28 00:18:33;;;;;;;0.13;0.13;;;;;;;;;;5074188;28;20033;-85
2021/11/28 00:20:58;;;;;;;0.10;0.10;;;;;;;;;;5073935;28;20032;-84
2021/11/28 00:23:24;;;;;;;0.10;0.10;;;;;;;;;;5073700;28;20040;-85
2021/11/28 00:25:49;;;;;;;0.10;0.10;;;;;;;;;;5073824;28;20054;-84
2021/11/28 00:28:16;;;;;;;0.10;0.10;;;;;;;;;;5073797;28;20532;-84
2021/11/28 00:30:41;;;;;;;0.50;0.50;;;;;;;;;;5073352;28;20369;-84
2021/11/28 00:33:07;;;;;;;0.10;0.10;;;;;;;;;;5073141;28;20024;-84
2021/11/28 00:35:32;;;;;;;0.10;0.10;;;;;;;;;;5073459;28;20078;-84
2021/11/28 00:37:57;;;;;;;0.10;0.10;;;;;;;;;;5073437;28;20079;-84
2021/11/28 00:40:23;;;;;;;0.10;0.10;;;;;;;;;;5073390;28;20472;-83
2021/11/28 00:42:48;;;;;;;0.85;0.85;;;;;;;;;;5073256;28;20050;-83
2021/11/28 00:45:14;;;;;;;0.30;0.30;;;;;;;;;;5073196;28;20017;-83
2021/11/28 00:47:39;;;;;;;0.10;0.10;;;;;;;;;;5072332;28;20056;-83
2021/11/28 00:50:17;;;;;;;0.10;0.10;;;;;;;;;;5073370;28;20029;-83
2021/11/28 00:52:43;;;;;;;0.10;0.10;;;;;;;;;;5071564;28;20005;-83
2021/11/28 00:55:10;;;;;;;0.20;0.20;;;;;;;;;;5072936;28;20045;-83
2021/11/28 00:57:35;;;;;;;0.10;0.10;;;;;;;;;;5071566;28;20036;-83
2021/11/28 01:00:06;;;;;;;0.10;0.10;;;;;;;;;;5073165;28;20008;-83
2021/11/28 01:02:31;;;;;;;0.10;0.10;;;;;;;;;;5073179;28;20055;-83
2021/11/28 01:04:57;;;;;;;0.20;0.20;;;;;;;;;;5073138;28;20449;-84
2021/11/28 01:07:22;;;;;;;0.10;0.10;;;;;;;;;;5072213;28;20520;-84
2021/11/28 01:09:48;;;;;;;0.10;0.10;;;;;;;;;;5073245;28;20102;-85
2021/11/28 01:12:13;;;;;;;0.20;0.20;;;;;;;;;;5072881;28;20025;-84
2021/11/28 01:14:39;;;;;;;0.13;0.13;;;;;;;;;;5073434;28;20027;-84
2021/11/28 01:17:05;;;;;;;0.10;0.10;;;;;;;;;;5072819;28;20032;-84
2021/11/28 01:19:31;;;;;;;0.10;0.10;;;;;;;;;;5073007;28;20019;-84
2021/11/28 01:22:00;;;;;;;0.10;0.10;;;;;;;;;;5072853;28;20046;-84
2021/11/28 01:24:25;;;;;;;1.63;1.55;;;;;;;;;;5072872;28;20032;-84
2021/11/28 01:26:51;;;;;;;0.10;0.10;;;;;;;;;;5073740;28;20024;-84
2021/11/28 01:29:16;;;;;;;0.90;0.90;;;;;;;;;;5077040;28;20021;-84
2021/11/28 01:31:42;;;;;;;0.10;0.10;;;;;;;;;;5075945;28;20039;-84
2021/11/28 01:34:07;;;;;;;0.10;0.10;;;;;;;;;;5073367;28;20488;-84
2021/11/28 01:36:33;;;;;;;0.10;0.10;;;;;;;;;;5075830;28;20035;-84
2021/11/28 01:39:00;;;;;;;0.10;0.10;;;;;;;;;;5077082;28;20036;-84
2021/11/28 01:41:25;;;;;;;0.10;0.10;;;;;;;;;;5077205;28;20091;-84
2021/11/28 01:43:52;;;;;;;0.10;0.10;;;;;;;;;;5076928;28;20047;-84
2021/11/28 01:46:18;;;;;;;0.43;0.43;;;;;;;;;;5077157;28;20043;-84
2021/11/28 01:48:43;;;;;;;0.10;0.10;;;;;;;;;;5076881;28;20016;-83
2021/11/28 01:51:08;;;;;;;0.10;0.10;;;;;;;;;;5076834;28;20089;-83
2021/11/28 01:53:34;;;;;;;0.10;0.10;;;;;;;;;;5077123;28;20039;-83
2021/11/28 01:55:59;;;;;;;0.10;0.10;;;;;;;;;;5076247;28;20045;-84
2021/11/28 01:58:25;;;;;;;0.20;0.20;;;;;;;;;;5077111;28;20035;-83
2021/11/28 02:00:51;;;;;;;0.10;0.10;;;;;;;;;;5076753;28;20085;-84
2021/11/28 02:03:18;;;;;;;0.10;0.10;;;;;;;;;;5075395;28;20017;-84
2021/11/28 02:05:46;;;;;;;0.10;0.10;;;;;;;;;;5076509;28;20100;-83
2021/11/28 02:08:11;;;;;;;0.20;0.20;;;;;;;;;;5076190;28;20024;-84
2021/11/28 02:10:36;;;;;;;1.77;1.38;;;;;;;;;;5076399;28;20151;-84
2021/11/28 02:13:02;;;;;;;0.20;0.20;;;;;;;;;;5076091;28;20040;-84
2021/11/28 02:15:27;;;;;;;1.67;1.05;;;;;;;;;;5075904;28;20433;-84
2021/11/28 02:17:54;;;;;;;0.10;0.10;;;;;;;;;;5075437;28;20107;-84
2021/11/28 02:20:21;;;;;;;0.10;0.10;;;;;;;;;;5075966;28;20457;-84
2021/11/28 02:22:46;;;;;;;0.10;0.10;;;;;;;;;;5076002;28;20044;-84
2021/11/28 02:25:12;;;;;;;0.10;0.10;;;;;;;;;;5076068;28;20017;-84
2021/11/28 02:27:37;;;;;;;0.10;0.10;;;;;;;;;;5074838;28;20469;-83
2021/11/28 02:30:04;;;;;;;0.10;0.10;;;;;;;;;;5076104;28;20060;-84
2021/11/28 02:32:29;;;;;;;0.10;0.10;;;;;;;;;;5076061;28;20020;-84
2021/11/28 02:34:54;;;;;;;0.10;0.10;;;;;;;;;;5075953;28;20017;-84
2021/11/28 02:37:20;;;;;;;0.10;0.10;;;;;;;;;;5075484;28;20102;-84
2021/11/28 02:39:45;;;;;;;0.10;0.10;;;;;;;;;;5075843;28;20024;-84
2021/11/28 02:42:10;;;;;;;0.10;0.10;;;;;;;;;;5076105;28;20103;-84
2021/11/28 02:44:36;;;;;;;0.10;0.10;;;;;;;;;;5076003;28;20024;-83
2021/11/28 02:47:01;;;;;;;0.10;0.10;;;;;;;;;;5075487;28;20021;-84
2021/11/28 02:49:27;;;;;;;0.10;0.10;;;;;;;;;;5075670;28;20461;-84
2021/11/28 02:51:52;;;;;;;0.10;0.10;;;;;;;;;;5075761;28;20151;-84
2021/11/28 02:54:17;;;;;;;0.10;0.10;;;;;;;;;;5075657;28;20048;-83
2021/11/28 02:56:43;;;;;;;0.20;0.20;;;;;;;;;;5075696;28;20020;-83
2021/11/28 02:59:09;;;;;;;0.10;0.10;;;;;;;;;;5075546;28;20063;-84
2021/11/28 03:01:34;;;;;;;0.10;0.10;;;;;;;;;;5075255;28;20035;-84
2021/11/28 03:04:00;;;;;;;0.10;0.10;;;;;;;;;;5073860;28;20067;-84
2021/11/28 03:06:25;;;;;;;0.10;0.10;;;;;;;;;;5075307;28;20044;-84
2021/11/28 03:08:50;;;;;;;1.63;1.52;;;;;;;;;;5075035;28;20099;-83
2021/11/28 03:11:16;;;;;;;0.10;0.10;;;;;;;;;;5075361;28;20091;-83
2021/11/28 03:13:46;;;;;;;0.10;0.10;;;;;;;;;;5075641;28;20033;-84
2021/11/28 03:16:12;;;;;;;0.10;0.10;;;;;;;;;;5075005;28;20120;-84
2021/11/28 03:18:38;;;;;;;0.10;0.10;;;;;;;;;;5075462;28;20055;-83
2021/11/28 03:21:05;;;;;;;0.15;0.15;;;;;;;;;;5075195;28;20056;-83
2021/11/28 03:23:31;;;;;;;0.10;0.10;;;;;;;;;;5073784;28;20070;-83
2021/11/28 03:26:07;;;;;;;0.10;0.10;;;;;;;;;;5075092;28;20099;-84
2021/11/28 03:28:33;;;;;;;0.10;0.10;;;;;;;;;;5073687;28;20480;-83
2021/11/28 03:30:58;;;;;;;0.10;0.10;;;;;;;;;;5074958;28;20019;-83
2021/11/28 03:33:23;;;;;;;0.10;0.10;;;;;;;;;;5075071;28;20039;-83
2021/11/28 03:35:50;;;;;;;0.10;0.10;;;;;;;;;;5074692;28;20020;-84
2021/11/28 03:38:15;;;;;;;0.10;0.10;;;;;;;;;;5074772;28;20031;-83
2021/11/28 03:40:40;;;;;;;0.10;0.10;;;;;;;;;;5074679;28;20119;-83
2021/11/28 03:43:06;;;;;;;0.20;0.20;;;;;;;;;;5074518;28;20457;-83
2021/11/28 03:45:31;;;;;;;0.10;0.10;;;;;;;;;;5073117;28;20028;-83
2021/11/28 03:47:57;;;;;;;0.10;0.10;;;;;;;;;;5074524;28;20052;-84
2021/11/28 03:50:22;;;;;;;0.10;0.10;;;;;;;;;;5074048;28;20150;-83
2021/11/28 03:52:47;;;;;;;0.10;0.10;;;;;;;;;;5074468;28;20441;-84
2021/11/28 03:55:15;;;;;;;0.20;0.20;;;;;;;;;;5074230;28;20086;-84
2021/11/28 03:57:40;;;;;;;0.10;0.10;;;;;;;;;;5074466;28;20435;-83
2021/11/28 04:00:07;;;;;;;0.10;0.10;;;;;;;;;;5074585;28;20015;-83
2021/11/28 04:02:33;;;;;;;0.10;0.10;;;;;;;;;;5074385;28;20074;-84
2021/11/28 04:04:58;;;;;;;0.10;0.10;;;;;;;;;;5074514;28;20032;-84
2021/11/28 04:07:23;;;;;;;0.10;0.10;;;;;;;;;;5074290;28;20016;-84
2021/11/28 04:09:49;;;;;;;0.10;0.10;;;;;;;;;;5074325;28;20148;-84
2021/11/28 04:12:14;;;;;;;0.10;0.10;;;;;;;;;;5072816;28;20558;-84
2021/11/28 04:14:39;;;;;;;0.10;0.10;;;;;;;;;;5073755;28;20009;-84
2021/11/28 04:17:05;;;;;;;0.10;0.10;;;;;;;;;;5074057;28;20044;-84
2021/11/28 04:19:30;;;;;;;0.10;0.10;;;;;;;;;;5073668;28;20066;-84
2021/11/28 04:21:55;;;;;;;0.10;0.10;;;;;;;;;;5073775;28;20017;-84
2021/11/28 04:24:21;;;;;;;0.10;0.10;;;;;;;;;;5072723;28;20467;-84
2021/11/28 04:26:46;;;;;;;0.10;0.10;;;;;;;;;;5074392;28;20059;-84
2021/11/28 04:29:13;;;;;;;0.25;0.25;;;;;;;;;;5072538;28;20025;-84
2021/11/28 04:31:38;;;;;;;0.10;0.10;;;;;;;;;;5073810;28;20253;-84
2021/11/28 04:34:04;;;;;;;0.10;0.10;;;;;;;;;;5073887;28;20498;-84
2021/11/28 04:36:29;;;;;;;3.42;1.67;;;;;;;;;;5073784;28;20532;-84
2021/11/28 04:38:54;;;;;;;0.10;0.10;;;;;;;;;;5073932;28;20032;-84
2021/11/28 04:41:20;;;;;;;0.10;0.10;;;;;;;;;;5073793;28;20025;-84
2021/11/28 04:43:45;;;;;;;0.28;0.28;;;;;;;;;;5073908;28;20013;-84
2021/11/28 04:46:10;;;;;;;0.10;0.10;;;;;;;;;;5072332;28;20369;-84
2021/11/28 04:48:36;;;;;;;0.10;0.10;;;;;;;;;;5073957;28;20483;-84
2021/11/28 04:51:01;;;;;;;0.20;0.20;;;;;;;;;;5073620;28;20021;-84
2021/11/28 04:53:26;;;;;;;0.10;0.10;;;;;;;;;;5073541;28;20374;-84
2021/11/28 04:55:52;;;;;;;0.10;0.10;;;;;;;;;;5073056;28;20048;-84
2021/11/28 04:58:17;;;;;;;0.10;0.10;;;;;;;;;;5072266;28;20029;-84
2021/11/28 05:00:42;;;;;;;0.45;0.45;;;;;;;;;;5072488;28;20400;-84
2021/11/28 05:03:08;;;;;;;0.10;0.10;;;;;;;;;;5073488;28;20064;-84
2021/11/28 05:05:33;;;;;;;0.10;0.10;;;;;;;;;;5073326;28;20013;-84
2021/11/28 05:07:59;;;;;;;0.10;0.10;;;;;;;;;;5073101;28;20060;-83
2021/11/28 05:10:24;;;;;;;0.10;0.10;;;;;;;;;;5073517;28;20098;-84
2021/11/28 05:12:50;;;;;;;0.10;0.10;;;;;;;;;;5073418;28;20516;-83
2021/11/28 05:15:15;;;;;;;0.10;0.10;;;;;;;;;;5073376;28;20037;-84
2021/11/28 05:17:41;;;;;;;0.10;0.10;;;;;;;;;;5073005;28;20044;-83
2021/11/28 05:20:06;;;;;;;0.10;0.10;;;;;;;;;;5073722;28;20022;-84
2021/11/28 05:22:32;;;;;;;0.10;0.10;;;;;;;;;;5073025;28;20078;-84
2021/11/28 05:24:57;;;;;;;0.17;0.17;;;;;;;;;;5073465;28;20032;-84
2021/11/28 05:27:23;;;;;;;0.10;0.10;;;;;;;;;;5073398;28;20425;-84
2021/11/28 05:29:48;;;;;;;0.10;0.10;;;;;;;;;;5073211;28;20036;-84
2021/11/28 05:32:14;;;;;;;0.10;0.10;;;;;;;;;;5073178;28;20449;-84
2021/11/28 05:34:40;;;;;;;0.10;0.10;;;;;;;;;;5073207;28;20019;-84
2021/11/28 05:37:05;;;;;;;0.10;0.10;;;;;;;;;;5073152;28;20083;-84
2021/11/28 05:39:31;;;;;;;0.10;0.10;;;;;;;;;;5073170;28;20439;-84
2021/11/28 05:41:57;;;;;;;0.10;0.10;;;;;;;;;;5073084;28;20005;-84
2021/11/28 05:44:23;;;;;;;0.10;0.10;;;;;;;;;;5072917;28;20035;-84
2021/11/28 05:46:48;;;;;;;0.10;0.10;;;;;;;;;;5072768;28;20036;-83
2021/11/28 05:49:13;;;;;;;0.20;0.20;;;;;;;;;;5072692;28;20012;-84
2021/11/28 05:51:39;;;;;;;0.10;0.10;;;;;;;;;;5072693;28;20028;-84
2021/11/28 05:54:04;;;;;;;0.10;0.10;;;;;;;;;;5072925;28;20037;-84
2021/11/28 05:56:29;;;;;;;0.10;0.10;;;;;;;;;;5072925;28;20013;-84
2021/11/28 05:58:55;;;;;;;0.10;0.10;;;;;;;;;;5072975;28;20541;-83
2021/11/28 06:01:20;;;;;;;0.17;0.17;;;;;;;;;;5072849;28;20025;-84
2021/11/28 06:03:46;;;;;;;0.13;0.13;;;;;;;;;;5072859;28;20453;-83
2021/11/28 06:06:11;;;;;;;0.10;0.10;;;;;;;;;;5072872;28;20058;-84
2021/11/28 06:08:37;;;;;;;0.10;0.10;;;;;;;;;;5073182;28;20107;-84
2021/11/28 06:11:02;;;;;;;0.10;0.10;;;;;;;;;;5072779;28;20461;-84
2021/11/28 06:13:27;;;;;;;0.20;0.20;;;;;;;;;;5075375;28;20428;-83
2021/11/28 06:15:53;;;;;;;0.10;0.10;;;;;;;;;;5076453;28;20028;-84
2021/11/28 06:18:18;;;;;;;0.10;0.10;;;;;;;;;;5076296;28;20040;-83
2021/11/28 06:20:43;;;;;;;1.45;1.45;;;;;;;;;;5076363;28;20038;-84
2021/11/28 06:23:08;;;;;;;0.10;0.10;;;;;;;;;;5076343;28;20036;-84
2021/11/28 06:25:34;;;;;;;0.10;0.10;;;;;;;;;;5076274;28;20415;-84
2021/11/28 06:27:59;;;;;;;0.10;0.10;;;;;;;;;;5076164;28;20036;-84
2021/11/28 06:30:24;;;;;;;0.10;0.10;;;;;;;;;;5075923;28;20033;-84
2021/11/28 06:32:50;;;;;;;0.10;0.10;;;;;;;;;;5076421;28;20021;-84
2021/11/28 06:35:15;;;;;;;0.10;0.10;;;;;;;;;;5076282;28;20040;-83
2021/11/28 06:37:40;;;;;;;0.10;0.10;;;;;;;;;;5076026;28;20040;-84
2021/11/28 06:40:06;;;;;;;0.10;0.10;;;;;;;;;;5075938;28;20097;-84
2021/11/28 06:42:32;;;;;;;0.10;0.10;;;;;;;;;;5076008;28;20468;-84
2021/11/28 06:44:57;;;;;;;0.10;0.10;;;;;;;;;;5076002;28;20101;-84
2021/11/28 06:47:22;;;;;;;0.10;0.10;;;;;;;;;;5072003;28;20029;-84
2021/11/28 06:49:48;;;;;;;0.10;0.10;;;;;;;;;;5075933;28;20037;-83
2021/11/28 06:52:13;;;;;;;0.10;0.10;;;;;;;;;;5075621;28;20033;-84
2021/11/28 06:54:38;;;;;;;2.05;1.50;;;;;;;;;;5075191;28;20113;-84
2021/11/28 06:57:04;;;;;;;1.95;1.40;;;;;;;;;;5075721;28;20439;-84
2021/11/28 06:59:31;;;;;;;0.10;0.10;;;;;;;;;;5075600;28;20453;-83
2021/11/28 07:01:56;;;;;;;0.10;0.10;;;;;;;;;;5075751;28;20013;-83
2021/11/28 07:04:22;;;;;;;0.10;0.10;;;;;;;;;;5075387;28;20040;-84
2021/11/28 07:06:47;;;;;;;0.10;0.10;;;;;;;;;;5075542;28;20024;-84
2021/11/28 07:09:13;;;;;;;0.10;0.10;;;;;;;;;;5074164;28;20032;-84
2021/11/28 07:11:38;;;;;;;0.10;0.10;;;;;;;;;;5075595;28;20032;-83
2021/11/28 07:14:03;;;;;;;0.13;0.13;;;;;;;;;;5075515;28;20036;-84
2021/11/28 07:16:29;;;;;;;0.10;0.10;;;;;;;;;;5075300;28;20009;-84
2021/11/28 07:18:54;;;;;;;0.13;0.13;;;;;;;;;;5074083;28;20497;-84
2021/11/28 07:21:19;;;;;;;0.10;0.10;;;;;;;;;;5075237;28;20108;-84
2021/11/28 07:23:48;;;;;;;1.10;1.08;;;;;;;;;;5073986;28;20025;-84
2021/11/28 07:26:15;;;;;;;0.10;0.10;;;;;;;;;;5075135;28;20036;-83
2021/11/28 07:28:40;;;;;;;0.10;0.10;;;;;;;;;;5069700;28;20052;-84
2021/11/28 07:31:06;;;;;;;0.20;0.20;;;;;;;;;;5075180;28;20051;-85
2021/11/28 07:33:35;;;;;;;0.10;0.10;;;;;;;;;;5071401;28;20029;-84
2021/11/28 07:36:00;;;;;;;0.10;0.10;;;;;;;;;;5073382;28;20147;-84
2021/11/28 07:38:25;;;;;;;0.10;0.10;;;;;;;;;;5074818;28;20111;-84
2021/11/28 07:40:51;;;;;;;0.10;0.10;;;;;;;;;;5075006;28;20036;-84
2021/11/28 07:43:16;;;;;;;0.10;0.10;;;;;;;;;;5074743;28;20058;-84
2021/11/28 07:45:41;;;;;;;0.13;0.13;;;;;;;;;;5074552;28;20062;-84
2021/11/28 07:48:07;;;;;;;0.10;0.10;;;;;;;;;;5074571;28;20035;-84
2021/11/28 07:50:32;;;;;;;0.10;0.10;;;;;;;;;;5074519;28;20434;-84
2021/11/28 07:52:57;;;;;;;0.10;0.10;;;;;;;;;;5074586;28;20008;-84
2021/11/28 07:55:23;;;;;;;0.10;0.10;;;;;;;;;;5074358;28;20053;-84
2021/11/28 07:57:48;;;;;;;0.10;0.10;;;;;;;;;;5074410;28;20068;-83
2021/11/28 08:00:14;;;;;;;0.10;0.10;;;;;;;;;;5074184;28;20028;-84
2021/11/28 08:02:39;;;;;;;0.10;0.10;;;;;;;;;;5072961;28;20028;-84
2021/11/28 08:05:06;;;;;;;0.47;0.47;;;;;;;;;;5074452;28;20499;-85
2021/11/28 08:07:31;;;;;;;0.10;0.10;;;;;;;;;;5074295;28;20027;-84
2021/11/28 08:09:56;;;;;;;0.10;0.10;;;;;;;;;;5074208;28;20392;-84
2021/11/28 08:12:22;;;;;;;0.10;0.10;;;;;;;;;;5074133;28;20036;-83
2021/11/28 08:14:47;;;;;;;0.10;0.10;;;;;;;;;;5073987;28;20446;-84
2021/11/28 08:17:13;;;;;;;0.10;0.10;;;;;;;;;;5073932;28;20033;-84
2021/11/28 08:19:40;;;;;;;0.20;0.20;;;;;;;;;;5072658;28;20036;-84
2021/11/28 08:22:05;;;;;;;0.10;0.10;;;;;;;;;;5074011;28;20100;-86
2021/11/28 08:24:31;;;;;;;1.40;1.30;;;;;;;;;;5074023;28;20443;-84
2021/11/28 08:26:56;;;;;;;0.10;0.10;;;;;;;;;;5073751;28;20035;-86
2021/11/28 08:29:21;;;;;;;0.13;0.13;;;;;;;;;;5070057;28;20016;-86
2021/11/28 08:31:47;;;;;;;0.10;0.10;;;;;;;;;;5067980;28;20043;-86
2021/11/28 08:34:12;;;;;;;1.48;0.85;;;;;;;;;;5073673;28;20036;-86
2021/11/28 08:36:38;;;;;;;0.10;0.10;;;;;;;;;;5069822;28;20472;-86
2021/11/28 08:39:04;;;;;;;0.10;0.10;;;;;;;;;;5073620;28;20431;-86
2021/11/28 08:41:29;;;;;;;0.10;0.10;;;;;;;;;;5073800;28;20530;-85
2021/11/28 08:43:56;;;;;;;0.50;0.50;;;;;;;;;;5073774;28;20054;-86
2021/11/28 08:46:22;;;;;;;0.10;0.10;;;;;;;;;;5073669;28;20059;-86
2021/11/28 08:48:47;;;;;;;0.10;0.10;;;;;;;;;;5073045;28;20113;-86
2021/11/28 08:51:13;;;;;;;0.30;0.30;;;;;;;;;;5073756;28;20457;-85
2021/11/28 08:53:39;;;;;;;0.45;0.45;;;;;;;;;;5073298;28;20035;-85
2021/11/28 08:56:05;;;;;;;0.77;0.77;;;;;;;;;;5073728;28;20469;-86
2021/11/28 08:58:30;;;;;;;0.10;0.10;;;;;;;;;;5073272;28;20461;-85
2021/11/28 09:00:56;;;;;;;0.25;0.25;;;;;;;;;;5073696;28;20032;-85
2021/11/28 09:03:21;;;;;;;0.20;0.20;;;;;;;;;;5073233;28;20051;-86
2021/11/28 09:05:47;;;;;;;0.10;0.10;;;;;;;;;;5073226;28;20361;-85
2021/11/28 09:08:12;;;;;;;0.10;0.10;;;;;;;;;;5068613;28;20032;-85
2021/11/28 09:10:41;;;;;;;0.10;0.10;;;;;;;;;;5073334;28;20025;-85
2021/11/28 09:13:07;;;;;;;0.10;0.10;;;;;;;;;;5073110;28;20345;-85
2021/11/28 09:15:32;;;;;;;0.15;0.15;;;;;;;;;;5072533;28;20059;-85
2021/11/28 09:20:58;;;;;;;0.10;0.10;;;;;;;;;;5056708;28;20028;-85
2021/11/28 09:26:07;;;;;;;0.90;0.90;;;;;;;;;;5072546;28;20112;-85
2021/11/28 09:28:32;;;;;;;1.13;0.73;;;;;;;;;;5073094;28;20107;-85
2021/11/28 09:30:58;;;;;;;0.73;0.73;;;;;;;;;;5072995;28;20016;-85
2021/11/28 09:33:23;;;;;;;5.85;2.10;;;;;;;;;;5072742;28;20370;-85
2021/11/28 09:35:48;;;;;;;0.40;0.40;;;;;;;;;;5073147;28;20032;-84
2021/11/28 09:38:13;;;;;;;0.47;0.47;;;;;;;;;;5072678;28;20465;-85
2021/11/28 09:40:40;;;;;;;1.60;1.50;;;;;;;;;;5073103;28;20020;-85
2021/11/28 09:43:06;;;;;;;1.92;1.13;;;;;;;;;;5072729;28;20062;-85
2021/11/28 09:45:32;;;;;;;0.30;0.30;;;;;;;;;;5072898;28;20100;-84
2021/11/28 09:47:57;;;;;;;0.10;0.10;;;;;;;;;;5074813;28;20013;-85
2021/11/28 09:50:24;;;;;;;0.10;0.10;;;;;;;;;;5076958;28;20422;-85
2021/11/28 09:52:50;;;;;;;0.20;0.20;;;;;;;;;;5076796;28;20115;-84
2021/11/28 09:55:16;;;;;;;0.10;0.10;;;;;;;;;;5077336;28;20123;-90
2021/11/28 09:57:41;;;;;;;0.10;0.10;;;;;;;;;;5075396;28;20043;-89
2021/11/28 10:00:08;;;;;;;0.20;0.20;;;;;;;;;;5077423;28;20020;-90
2021/11/28 10:02:35;;;;;;;0.15;0.15;;;;;;;;;;5059337;28;20008;-92
2021/11/28 10:05:03;;;;;;;0.20;0.20;;;;;;;;;;5077472;28;20127;-92
2021/11/28 10:07:28;;;;;;;0.28;0.28;;;;;;;;;;5077094;28;20020;-92
2021/11/28 10:09:54;;;;;;;0.52;0.52;;;;;;;;;;5077213;28;20017;-91
2021/11/28 10:12:19;;;;;;;0.10;0.10;;;;;;;;;;5077138;28;20040;-91
2021/11/28 10:14:48;;;;;;;0.20;0.20;;;;;;;;;;5076834;28;20480;-91
2021/11/28 10:17:14;;;;;;;0.15;0.15;;;;;;;;;;5077173;28;20452;-90
2021/11/28 10:19:40;;;;;;;0.17;0.17;;;;;;;;;;5076943;28;20115;-90
2021/11/28 10:22:06;;;;;;;0.10;0.10;;;;;;;;;;5075639;28;20048;-90
2021/11/28 10:24:31;;;;;;;0.10;0.10;;;;;;;;;;5077163;28;20020;-90
2021/11/28 10:26:57;;;;;;;0.10;0.10;;;;;;;;;;5076890;28;20032;-90
2021/11/28 10:29:23;;;;;;;0.10;0.10;;;;;;;;;;5076744;28;20016;-90
2021/11/28 10:31:50;;;;;;;0.50;0.50;;;;;;;;;;5073161;28;20032;-90
2021/11/28 10:34:15;;;;;;;0.10;0.10;;;;;;;;;;5076666;28;20044;-89
2021/11/28 10:36:40;;;;;;;0.30;0.30;;;;;;;;;;5076241;28;20020;-89
2021/11/28 10:39:16;;;;;;;0.28;0.28;;;;;;;;;;5076152;28;20016;-88
2021/11/28 10:41:46;;;;;;;1.30;0.85;;;;;;;;;;5076611;28;20035;-89
2021/11/28 10:44:12;;;;;;;0.60;0.60;;;;;;;;;;5075809;28;20013;-89
2021/11/28 10:46:37;;;;;;;0.10;0.10;;;;;;;;;;5076302;28;20028;-88
2021/11/28 10:49:04;;;;;;;0.57;0.57;;;;;;;;;;5075981;28;20100;-88
2021/11/28 10:51:29;;;;;;;0.10;0.10;;;;;;;;;;5075496;28;20054;-89
2021/11/28 10:53:55;;;;;;;0.20;0.20;;;;;;;;;;5075525;28;20025;-89
2021/11/28 10:56:20;;;;;;;0.10;0.10;;;;;;;;;;5075904;28;20078;-88
2021/11/28 10:58:45;;;;;;;0.60;0.60;;;;;;;;;;5074477;28;20044;-90
2021/11/28 11:01:11;;;;;;;0.13;0.13;;;;;;;;;;5073557;28;20392;-89
2021/11/28 11:03:48;;;;;;;1.98;1.85;;;;;;;;;;5075531;28;20052;-89
2021/11/28 11:06:18;;;;;;;0.32;0.32;;;;;;;;;;5074374;28;20043;-89
2021/11/28 11:08:43;;;;;;;0.10;0.10;;;;;;;;;;5075411;28;20055;-89
2021/11/28 11:11:11;;;;;;;0.20;0.20;;;;;;;;;;5075018;28;20473;-89
2021/11/28 11:13:52;;;;;;;0.10;0.10;;;;;;;;;;5074512;28;20738;-89
2021/11/28 11:16:30;;;;;;;0.50;0.50;;;;;;;;;;5066484;28;20032;-88
2021/11/28 11:19:16;;;;;;;0.15;0.15;;;;;;;;;;5075382;28;20052;-88
2021/11/28 11:21:41;;;;;;;;;;;;;;;;;;5074009;28;20493;-89
2021/11/28 11:24:22;;;;;;;0.15;0.15;;;;;;;;;;5074173;28;19909;-88
2021/11/28 11:26:48;;;;;;;0.10;0.10;;;;;;;;;;5074085;28;20100;-88
2021/11/28 11:29:15;;;;;;;0.20;0.20;;;;;;;;;;5073766;28;20457;-89
2021/11/28 11:31:43;;;;;;;0.10;0.10;;;;;;;;;;5073459;28;20468;-88
2021/11/28 11:34:27;;;;;;;0.20;0.20;;;;;;;;;;5073992;28;20389;-89
2021/11/28 11:36:56;;;;;;;0.10;0.10;;;;;;;;;;5075097;28;20020;-88
2021/11/28 11:39:22;;;;;;;1.13;0.30;;;;;;;;;;5074991;28;20028;-89
2021/11/28 11:41:48;;;;;;;0.10;0.10;;;;;;;;;;5075056;28;20043;-88
2021/11/28 11:44:16;;;;;;;0.10;0.10;;;;;;;;;;5075511;28;20021;-88
2021/11/28 11:46:45;;;;;;;0.25;0.25;;;;;;;;;;5074907;28;20024;-89
2021/11/28 11:49:11;;;;;;;0.10;0.10;;;;;;;;;;5074888;28;20009;-89
2021/11/28 11:51:36;;;;;;;1.75;1.10;;;;;;;;;;5074444;28;20107;-88
2021/11/28 11:54:04;;;;;;;0.10;0.10;;;;;;;;;;5074089;28;20036;-88
2021/11/28 11:56:30;;;;;;;0.38;0.38;;;;;;;;;;5074547;28;20395;-89
2021/11/28 11:59:15;;;;;;;0.10;0.10;;;;;;;;;;5070679;28;20036;-88
2021/11/28 12:01:43;;;;;;;0.10;0.10;;;;;;;;;;5074092;28;20377;-88
2021/11/28 12:04:08;;;;;;;0.22;0.22;;;;;;;;;;5074367;28;20033;-87
2021/11/28 12:06:44;;;;;;;0.10;0.10;;;;;;;;;;5074337;28;20077;-88
2021/11/28 12:09:30;;;;;;;0.13;0.13;;;;;;;;;;5073871;28;20028;-88
2021/11/28 12:11:57;;;;;;;0.10;0.10;;;;;;;;;;5074096;28;20059;-87
2021/11/28 12:14:22;;;;;;;0.73;0.73;;;;;;;;;;5074121;28;20036;-88
2021/11/28 12:16:48;;;;;;;0.10;0.10;;;;;;;;;;5073880;28;20078;-88
2021/11/28 12:19:32;;;;;;;0.10;0.10;;;;;;;;;;5073955;28;20017;-88
2021/11/28 12:21:57;;;;;;;0.10;0.10;;;;;;;;;;5061124;28;20021;-88
2021/11/28 12:24:24;;;;;;;0.10;0.10;;;;;;;;;;5074556;28;20039;-88
2021/11/28 12:27:08;;;;;;;0.90;0.82;;;;;;;;;;5073952;28;20044;-88
2021/11/28 12:29:37;;;;;;;0.10;0.10;;;;;;;;;;5074019;28;20419;-88
2021/11/28 12:32:09;;;;;;;0.90;0.90;;;;;;;;;;5073999;28;20031;-88
2021/11/28 12:34:52;;;;;;;0.10;0.10;;;;;;;;;;5068147;28;20038;-89
2021/11/28 12:37:22;;;;;;;0.10;0.10;;;;;;;;;;5073736;28;20070;-88
2021/11/28 12:39:47;;;;;;;0.10;0.10;;;;;;;;;;5073748;28;20043;-88
2021/11/28 12:42:16;;;;;;;1.15;1.08;;;;;;;;;;5071414;28;20032;-89
2021/11/28 12:44:50;;;;;;;0.10;0.10;;;;;;;;;;5073375;28;20013;-88
2021/11/28 12:47:15;;;;;;;3.40;0.57;;;;;;;;;;5073432;28;20051;-89
2021/11/28 12:49:42;;;;;;;0.63;0.63;;;;;;;;;;5073774;28;20032;-88
2021/11/28 12:52:14;;;;;;;0.10;0.10;;;;;;;;;;5073660;28;20105;-87
2021/11/28 12:54:41;;;;;;;0.10;0.10;;;;;;;;;;5073628;28;20609;-89
2021/11/28 12:57:19;;;;;;;0.20;0.20;;;;;;;;;;5073591;28;20043;-88
2021/11/28 13:00:04;;;;;;;0.65;0.65;;;;;;;;;;5073595;28;20045;-88
2021/11/28 13:02:41;;;;;;;0.10;0.10;;;;;;;;;;5073637;28;20024;-88
2021/11/28 13:05:26;;;;;;;0.10;0.10;;;;;;;;;;5073726;28;20074;-89
2021/11/28 13:07:52;;;;;;;0.10;0.10;;;;;;;;;;5073294;28;20028;-87
2021/11/28 13:10:22;;;;;;;0.10;0.10;;;;;;;;;;5073703;28;20028;-88
2021/11/28 13:12:47;;;;;;;0.10;0.10;;;;;;;;;;5073540;28;20021;-88
2021/11/28 13:15:23;;;;;;;0.90;0.90;;;;;;;;;;5074448;28;20432;-88
2021/11/28 13:17:49;;;;;;;0.10;0.10;;;;;;;;;;5073350;28;20048;-88
2021/11/28 13:20:14;;;;;;;0.10;0.10;;;;;;;;;;5073551;28;20476;-88
2021/11/28 13:22:41;;;;;;;0.10;0.10;;;;;;;;;;5069893;28;20050;-88
2021/11/28 13:25:25;;;;;;;0.10;0.10;;;;;;;;;;5072334;28;20033;-88
2021/11/28 13:27:50;;;;;;;0.05;0.05;;;;;;;;;;5067408;28;20044;-89
2021/11/28 13:30:19;;;;;;;0.30;0.30;;;;;;;;;;5073155;28;20029;-89
2021/11/28 13:32:46;;;;;;;0.10;0.10;;;;;;;;;;5073232;28;20500;-88
2021/11/28 13:35:12;;;;;;;0.10;0.10;;;;;;;;;;5072045;28;20419;-88
2021/11/28 13:37:37;;;;;;;0.30;0.30;;;;;;;;;;5072069;28;20374;-88
2021/11/28 13:40:12;;;;;;;0.10;0.10;;;;;;;;;;5073350;28;20021;-89
2021/11/28 13:42:44;;;;;;;0.10;0.10;;;;;;;;;;5073415;28;20047;-88
2021/11/28 13:45:11;;;;;;;0.25;0.25;;;;;;;;;;5073193;28;20035;-89
2021/11/28 13:47:36;;;;;;;0.75;0.75;;;;;;;;;;5073370;28;20009;-88
2021/11/28 13:50:09;;;;;;;0.75;0.75;;;;;;;;;;5074262;28;20040;-89
2021/11/28 13:52:35;;;;;;;0.57;0.57;;;;;;;;;;5058886;28;20473;-89
2021/11/28 13:55:01;;;;;;;0.20;0.20;;;;;;;;;;5071971;28;20495;-89
2021/11/28 13:57:26;;;;;;;0.85;0.85;;;;;;;;;;5073180;28;20058;-89
2021/11/28 14:00:00;;;;;;;1.73;1.05;;;;;;;;;;5072509;28;20115;-88
2021/11/28 14:02:29;;;;;;;0.93;0.82;;;;;;;;;;5073102;28;20040;-88
2021/11/28 14:04:59;;;;;;;0.10;0.10;;;;;;;;;;5073078;28;20112;-89
2021/11/28 14:07:28;;;;;;;5.32;1.98;;;;;;;;;;5072957;28;20034;-88
2021/11/28 14:09:58;;;;;;;2.78;2.47;;;;;;;;;;5072952;28;20387;-88
2021/11/28 14:12:27;;;;;;;0.28;0.28;;;;;;;;;;5064011;28;20056;-89
2021/11/28 14:14:54;;;;;;;3.45;1.08;;;;;;;;;;5073054;28;20108;-88
2021/11/28 14:17:19;;;;;;;2.92;2.72;;;;;;;;;;5063788;28;20037;-88
2021/11/28 14:19:45;;;;;;;1.38;1.33;;;;;;;;;;5071203;28;20027;-88
2021/11/28 14:22:24;;;;;;;5.70;0.73;;;;;;;;;;5069246;28;20064;-89
2021/11/28 14:24:50;;;;;;;0.20;0.20;;;;;;;;;;5072632;28;20025;-88
2021/11/28 14:27:16;;;;;;;0.60;0.60;;;;;;;;;;5072958;28;20032;-88
2021/11/28 14:29:42;;;;;;;19.58;1.23;;;;;;;;;;5072867;28;20016;-89
2021/11/28 14:32:08;;;;;;;0.65;0.65;;;;;;;;;;5072897;28;20040;-87
2021/11/28 14:34:33;;;;;;;0.10;0.10;;;;;;;;;;5075576;28;20149;-88
2021/11/28 14:36:58;;;;;;;0.22;0.22;;;;;;;;;;5074687;28;20016;-88
2021/11/28 14:39:33;;;;;;;3.00;1.45;;;;;;;;;;5076620;28;20024;-88
2021/11/28 14:41:58;;;;;;;0.40;0.40;;;;;;;;;;5076267;28;20025;-88
2021/11/28 14:44:25;;;;;;;0.30;0.30;;;;;;;;;;5075664;28;20032;-88
2021/11/28 14:46:51;;;;;;;0.85;0.63;;;;;;;;;;5075239;28;20024;-87
2021/11/28 14:49:18;;;;;;;2.60;0.75;;;;;;;;;;5076139;28;20028;-88
2021/11/28 14:51:48;;;;;;;0.30;0.30;;;;;;;;;;5076084;28;20036;-88